createdAt,value
2018-03-15T00:01:58.290Z,13.33
2018-03-15T00:04:25.091Z,13.43
2018-03-15T00:06:51.746Z,13.73
2018-03-15T00:09:18.397Z,14.10
2018-03-15T00:11:45.055Z,15.10
2018-03-15T00:14:11.719Z,12.17
2018-03-15T00:16:38.377Z,13.80
2018-03-15T00:19:05.082Z,14.23
2018-03-15T00:21:31.743Z,13.93
2018-03-15T00:23:58.373Z,14.00
2018-03-15T00:26:25.308Z,11.93
2018-03-15T00:28:51.949Z,13.80
2018-03-15T00:31:18.604Z,13.23
2018-03-15T00:33:45.260Z,11.27
2018-03-15T00:36:11.887Z,12.07
2018-03-15T00:38:38.542Z,14.20
2018-03-15T00:41:05.239Z,16.40
2018-03-15T00:43:31.925Z,15.70
2018-03-15T00:45:58.565Z,12.80
2018-03-15T00:48:25.273Z,13.23
2018-03-15T00:50:51.911Z,13.40
2018-03-15T00:53:18.572Z,14.03
2018-03-15T00:55:45.498Z,14.63
2018-03-15T00:58:12.174Z,13.10
2018-03-15T01:00:38.854Z,14.27
2018-03-15T01:03:05.790Z,13.27
2018-03-15T01:05:32.427Z,15.40
2018-03-15T01:07:59.130Z,15.73
2018-03-15T01:10:26.542Z,14.77
2018-03-15T01:12:53.178Z,14.70
2018-03-15T01:15:20.021Z,15.20
2018-03-15T01:17:46.648Z,15.43
2018-03-15T01:20:13.286Z,18.13
2018-03-15T01:22:39.923Z,15.53
2018-03-15T01:25:06.608Z,14.50
2018-03-15T01:27:33.272Z,17.63
2018-03-15T01:30:00.017Z,16.90
2018-03-15T01:32:26.708Z,15.70
2018-03-15T01:34:53.382Z,17.03
2018-03-15T01:37:20.155Z,21.40
2018-03-15T01:39:46.815Z,16.47
2018-03-15T01:42:13.429Z,16.20
2018-03-15T01:44:40.112Z,15.17
2018-03-15T01:47:06.753Z,18.23
2018-03-15T01:49:33.537Z,15.63
2018-03-15T01:52:00.397Z,16.03
2018-03-15T01:54:27.081Z,18.00
2018-03-15T01:56:53.727Z,17.20
2018-03-15T01:59:21.915Z,17.40
2018-03-15T02:01:48.652Z,19.13
2018-03-15T02:04:15.359Z,16.80
2018-03-15T02:06:42.027Z,17.00
2018-03-15T02:09:08.684Z,17.00
2018-03-15T02:11:35.426Z,17.37
2018-03-15T02:14:02.476Z,21.20
2018-03-15T02:16:29.230Z,17.97
2018-03-15T02:18:56.393Z,16.73
2018-03-15T02:21:23.028Z,20.87
2018-03-15T02:23:49.716Z,19.43
2018-03-15T02:26:16.461Z,20.13
2018-03-15T02:28:43.266Z,21.73
2018-03-15T02:31:10.012Z,23.20
2018-03-15T02:33:36.688Z,21.20
2018-03-15T02:36:03.439Z,20.20
2018-03-15T02:38:30.087Z,19.30
2018-03-15T02:40:56.798Z,19.07
2018-03-15T02:43:23.428Z,19.93
2018-03-15T02:45:50.227Z,21.03
2018-03-15T02:48:16.869Z,20.20
2018-03-15T02:50:43.515Z,19.07
2018-03-15T02:53:10.221Z,22.93
2018-03-15T02:55:36.906Z,25.30
2018-03-15T02:58:03.674Z,19.10
2018-03-15T03:00:30.382Z,22.80
2018-03-15T03:02:57.056Z,22.27
2018-03-15T03:05:23.686Z,23.60
2018-03-15T03:07:50.325Z,23.07
2018-03-15T03:10:17.071Z,24.80
2018-03-15T03:12:43.745Z,23.30
2018-03-15T03:15:10.377Z,26.00
2018-03-15T03:17:37.037Z,24.03
2018-03-15T03:20:03.799Z,22.67
2018-03-15T03:22:30.449Z,26.70
2018-03-15T03:24:57.090Z,29.43
2018-03-15T03:27:23.991Z,22.93
2018-03-15T03:29:50.620Z,29.43
2018-03-15T03:32:17.297Z,23.23
2018-03-15T03:34:43.933Z,25.70
2018-03-15T03:37:10.586Z,27.00
2018-03-15T03:39:37.202Z,23.67
2018-03-15T03:42:03.838Z,26.33
2018-03-15T03:44:30.469Z,23.70
2018-03-15T03:46:57.180Z,25.77
2018-03-15T03:49:24.695Z,25.30
2018-03-15T03:51:51.417Z,25.63
2018-03-15T03:54:18.047Z,26.53
2018-03-15T03:56:44.689Z,24.27
2018-03-15T03:59:11.339Z,28.77
2018-03-15T04:01:37.980Z,27.10
2018-03-15T04:04:04.789Z,25.30
2018-03-15T04:06:31.471Z,28.03
2018-03-15T04:08:58.148Z,26.70
2018-03-15T04:11:24.804Z,27.60
2018-03-15T04:13:51.437Z,27.07
2018-03-15T04:16:18.095Z,26.80
2018-03-15T04:18:44.782Z,25.40
2018-03-15T04:21:11.451Z,30.37
2018-03-15T04:23:38.118Z,31.13
2018-03-15T04:26:04.773Z,26.43
2018-03-15T04:28:31.503Z,24.70
2018-03-15T04:30:58.154Z,29.63
2018-03-15T04:33:24.820Z,30.13
2018-03-15T04:35:51.562Z,27.80
2018-03-15T04:38:18.185Z,26.77
2018-03-15T04:40:44.890Z,28.10
2018-03-15T04:43:11.548Z,29.90
2018-03-15T04:45:38.306Z,31.90
2018-03-15T04:48:05.020Z,30.50
2018-03-15T04:50:31.684Z,30.63
2018-03-15T04:52:58.390Z,27.60
2018-03-15T04:55:25.056Z,29.63
2018-03-15T04:57:51.694Z,31.03
2018-03-15T05:00:18.331Z,30.63
2018-03-15T05:02:45.010Z,30.20
2018-03-15T05:05:11.634Z,28.70
2018-03-15T05:07:38.315Z,31.87
2018-03-15T05:10:05.005Z,32.70
2018-03-15T05:12:31.657Z,30.33
2018-03-15T05:14:58.281Z,32.37
2018-03-15T05:17:25.097Z,31.00
2018-03-15T05:19:51.752Z,26.90
2018-03-15T05:22:18.443Z,29.40
2018-03-15T05:24:45.209Z,32.10
2018-03-15T05:27:11.861Z,31.20
2018-03-15T05:29:38.506Z,32.80
2018-03-15T05:32:05.231Z,30.20
2018-03-15T05:34:31.866Z,29.83
2018-03-15T05:36:58.532Z,27.83
2018-03-15T05:39:25.384Z,30.03
2018-03-15T05:41:52.043Z,31.27
2018-03-15T05:44:18.720Z,28.40
2018-03-15T05:46:45.369Z,27.30
2018-03-15T05:49:12.018Z,29.07
2018-03-15T05:51:38.658Z,29.70
2018-03-15T05:54:05.316Z,30.40
2018-03-15T05:56:31.952Z,27.97
2018-03-15T05:58:58.634Z,29.67
2018-03-15T06:01:25.462Z,28.40
2018-03-15T06:03:52.117Z,29.60
2018-03-15T06:06:18.853Z,26.40
2018-03-15T06:08:45.542Z,30.17
2018-03-15T06:11:12.230Z,29.33
2018-03-15T06:13:38.980Z,31.40
2018-03-15T06:16:05.620Z,27.37
2018-03-15T06:18:32.317Z,29.03
2018-03-15T06:20:59.018Z,25.70
2018-03-15T06:23:25.755Z,28.47
2018-03-15T06:25:52.468Z,27.70
2018-03-15T06:28:19.334Z,30.27
2018-03-15T06:30:46.012Z,29.70
2018-03-15T06:33:12.747Z,32.20
2018-03-15T06:35:39.377Z,29.03
2018-03-15T06:38:06.136Z,32.67
2018-03-15T06:40:33.008Z,28.97
2018-03-15T06:42:59.644Z,33.33
2018-03-15T06:45:26.415Z,30.60
2018-03-15T06:47:53.971Z,29.70
2018-03-15T06:50:20.673Z,26.47
2018-03-15T06:52:47.321Z,33.67
2018-03-15T06:55:14.116Z,31.67
2018-03-15T06:57:40.796Z,30.90
2018-03-15T07:00:07.447Z,26.60
2018-03-15T07:02:34.139Z,29.20
2018-03-15T07:05:00.795Z,28.73
2018-03-15T07:07:27.546Z,28.20
2018-03-15T07:09:54.259Z,29.53
2018-03-15T07:12:20.929Z,27.43
2018-03-15T07:14:47.616Z,28.17
2018-03-15T07:17:14.268Z,31.00
2018-03-15T07:19:40.928Z,27.63
2018-03-15T07:22:07.714Z,25.37
2018-03-15T07:24:34.420Z,26.07
2018-03-15T07:27:01.095Z,27.70
2018-03-15T07:29:27.935Z,24.97
2018-03-15T07:31:54.639Z,24.27
2018-03-15T07:34:21.393Z,24.53
2018-03-15T07:36:48.057Z,30.00
2018-03-15T07:39:14.789Z,24.40
2018-03-15T07:41:41.464Z,24.30
2018-03-15T07:44:08.225Z,26.10
2018-03-15T07:46:34.907Z,24.17
2018-03-15T07:49:01.705Z,28.07
2018-03-15T07:51:28.419Z,22.47
2018-03-15T07:53:55.223Z,25.93
2018-03-15T07:56:21.872Z,22.10
2018-03-15T07:58:48.504Z,27.07
2018-03-15T08:01:15.342Z,24.53
2018-03-15T08:03:41.972Z,24.90
2018-03-15T08:06:08.648Z,22.23
2018-03-15T08:08:35.343Z,20.30
2018-03-15T08:11:02.025Z,21.80
2018-03-15T08:13:28.667Z,25.47
2018-03-15T08:15:55.380Z,23.60
2018-03-15T08:18:22.193Z,24.37
2018-03-15T08:20:48.872Z,23.33
2018-03-15T08:23:15.689Z,23.57
2018-03-15T08:25:42.342Z,21.33
2018-03-15T08:28:09.017Z,24.20
2018-03-15T08:30:35.662Z,20.60
2018-03-15T08:33:02.336Z,20.60
2018-03-15T08:35:29.034Z,21.77
2018-03-15T08:37:55.825Z,16.70
2018-03-15T08:40:22.511Z,24.13
2018-03-15T08:42:49.178Z,21.27
2018-03-15T08:45:15.951Z,22.10
2018-03-15T08:47:42.660Z,17.93
2018-03-15T08:50:09.313Z,21.37
2018-03-15T08:52:36.054Z,19.37
2018-03-15T08:55:02.765Z,18.63
2018-03-15T08:57:29.576Z,21.03
2018-03-15T08:59:56.311Z,21.43
2018-03-15T09:02:22.959Z,19.20
2018-03-15T09:04:49.671Z,26.00
2018-03-15T09:07:16.507Z,17.40
2018-03-15T09:09:43.159Z,20.20
2018-03-15T09:12:09.860Z,16.83
2018-03-15T09:14:36.629Z,20.83
2018-03-15T09:17:03.363Z,17.50
2018-03-15T09:19:29.995Z,18.97
2018-03-15T09:21:56.720Z,22.50
2018-03-15T09:24:23.452Z,19.27
2018-03-15T09:26:50.084Z,17.97
2018-03-15T09:29:16.739Z,16.77
2018-03-15T09:31:43.384Z,23.90
2018-03-15T09:34:10.118Z,19.50
2018-03-15T09:36:36.772Z,17.60
2018-03-15T09:39:03.435Z,18.70
2018-03-15T09:41:30.825Z,19.63
2018-03-15T09:43:57.515Z,18.23
2018-03-15T09:46:24.286Z,17.93
2018-03-15T09:48:51.013Z,17.60
2018-03-15T09:51:17.773Z,17.37
2018-03-15T09:53:44.504Z,19.83
2018-03-15T09:56:11.209Z,16.83
2018-03-15T09:58:37.994Z,19.53
2018-03-15T10:01:04.679Z,17.73
2018-03-15T10:03:31.354Z,18.10
2018-03-15T10:05:58.222Z,15.70
2018-03-15T10:08:24.895Z,18.37
2018-03-15T10:10:51.610Z,16.20
2018-03-15T10:13:18.321Z,16.83
2018-03-15T10:15:45.204Z,14.17
2018-03-15T10:18:11.858Z,16.80
2018-03-15T10:20:38.545Z,20.67
2018-03-15T10:23:05.226Z,18.10
2018-03-15T10:25:31.926Z,14.70
2018-03-15T10:27:58.587Z,16.63
2018-03-15T10:30:25.266Z,16.60
2018-03-15T10:33:11.723Z,18.93
2018-03-15T10:35:38.493Z,18.00
2018-03-15T10:38:05.192Z,14.20
2018-03-15T10:40:31.942Z,15.57
2018-03-15T10:42:58.753Z,14.23
2018-03-15T10:45:25.472Z,17.23
2018-03-15T10:47:52.137Z,16.00
2018-03-15T10:50:18.955Z,19.87
2018-03-15T10:52:45.607Z,16.97
2018-03-15T10:55:12.378Z,15.87
2018-03-15T10:57:39.040Z,13.83
2018-03-15T11:00:05.938Z,14.87
2018-03-15T11:02:38.282Z,12.80
2018-03-15T11:05:04.994Z,15.03
2018-03-15T11:07:43.493Z,13.60
2018-03-15T11:10:10.157Z,13.00
2018-03-15T11:12:36.854Z,12.70
2018-03-15T11:15:03.534Z,13.80
2018-03-15T11:17:30.208Z,12.70
2018-03-15T11:19:56.885Z,12.93
2018-03-15T11:22:23.624Z,12.10
2018-03-15T11:24:50.296Z,11.60
2018-03-15T11:27:17.001Z,11.77
2018-03-15T11:29:43.624Z,10.73
2018-03-15T11:32:10.303Z,11.07
2018-03-15T11:34:36.969Z,11.40
2018-03-15T11:37:03.677Z,10.40
2018-03-15T11:39:30.311Z,10.50
2018-03-15T11:41:56.962Z,12.17
2018-03-15T11:44:23.621Z,10.63
2018-03-15T11:46:51.487Z,13.60
2018-03-15T11:49:18.125Z,12.13
2018-03-15T11:51:44.769Z,10.60
2018-03-15T11:54:11.505Z,11.87
2018-03-15T11:56:38.157Z,11.23
2018-03-15T11:59:04.840Z,11.50
2018-03-15T12:01:31.719Z,12.30
2018-03-15T12:03:58.588Z,15.13
2018-03-15T12:06:25.271Z,12.60
2018-03-15T12:08:52.824Z,12.00
2018-03-15T12:11:19.509Z,12.60
2018-03-15T12:13:46.441Z,10.53
2018-03-15T12:16:13.128Z,10.30
2018-03-15T12:18:39.802Z,11.47
2018-03-15T12:21:06.892Z,11.67
2018-03-15T12:23:33.785Z,11.70
2018-03-15T12:26:01.681Z,11.03
2018-03-15T12:28:31.417Z,10.77
2018-03-15T12:30:58.256Z,10.80
2018-03-15T12:33:27.461Z,10.13
2018-03-15T12:35:55.077Z,11.30
2018-03-15T12:38:22.625Z,11.57
2018-03-15T12:40:49.399Z,9.70
2018-03-15T12:43:18.247Z,10.20
2018-03-15T12:45:45.261Z,11.80
2018-03-15T12:48:11.867Z,13.20
2018-03-15T12:50:38.575Z,10.47
2018-03-15T12:53:05.221Z,13.00
2018-03-15T12:55:31.856Z,11.47
2018-03-15T12:57:58.576Z,11.03
2018-03-15T13:00:25.598Z,13.63
2018-03-15T13:02:52.257Z,10.47
2018-03-15T13:05:18.988Z,9.77
2018-03-15T13:07:48.366Z,11.07
2018-03-15T13:10:15.719Z,10.50
2018-03-15T13:12:42.363Z,10.70
2018-03-15T13:15:09.019Z,10.60
2018-03-15T13:17:35.727Z,11.23
2018-03-15T13:20:02.385Z,9.17
2018-03-15T13:22:29.157Z,9.60
2018-03-15T13:24:55.844Z,9.80
2018-03-15T13:27:22.709Z,10.77
2018-03-15T13:29:51.516Z,9.90
2018-03-15T13:32:18.231Z,11.67
2018-03-15T13:34:44.868Z,10.60
2018-03-15T13:37:11.535Z,12.20
2018-03-15T13:39:38.192Z,11.33
2018-03-15T13:42:04.829Z,9.87
2018-03-15T13:44:31.480Z,11.17
2018-03-15T13:46:58.090Z,11.30
2018-03-15T13:49:24.730Z,10.83
2018-03-15T13:51:51.856Z,10.73
2018-03-15T13:54:19.914Z,10.33
2018-03-15T13:56:47.192Z,10.57
2018-03-15T13:59:13.846Z,10.23
2018-03-15T14:01:40.486Z,11.47
2018-03-15T14:04:07.260Z,10.17
2018-03-15T14:06:34.034Z,11.17
2018-03-15T14:09:00.782Z,9.77
2018-03-15T14:11:28.221Z,11.53
2018-03-15T14:13:54.941Z,11.77
2018-03-15T14:16:21.611Z,12.23
2018-03-15T14:18:48.335Z,9.93
2018-03-15T14:21:14.980Z,12.60
2018-03-15T14:23:41.715Z,10.33
2018-03-15T14:26:08.463Z,10.90
2018-03-15T14:28:35.464Z,13.20
2018-03-15T14:31:02.116Z,13.10
2018-03-15T14:33:28.860Z,13.90
2018-03-15T14:35:55.615Z,15.13
2018-03-15T14:38:22.391Z,12.63
2018-03-15T14:40:49.263Z,11.47
2018-03-15T14:43:16.037Z,11.90
2018-03-15T14:45:42.774Z,11.03
2018-03-15T14:48:09.522Z,11.70
2018-03-15T14:50:36.367Z,14.40
2018-03-15T14:53:03.021Z,12.20
2018-03-15T14:55:29.683Z,12.90
2018-03-15T14:57:56.443Z,12.97
2018-03-15T15:00:23.099Z,15.30
2018-03-15T15:02:49.791Z,11.90
2018-03-15T15:05:16.537Z,11.93
2018-03-15T15:07:43.357Z,12.20
2018-03-15T15:10:10.041Z,11.13
2018-03-15T15:12:36.858Z,10.03
2018-03-15T15:15:03.574Z,11.07
2018-03-15T15:17:30.219Z,11.60
2018-03-15T15:19:56.873Z,13.00
2018-03-15T15:22:23.632Z,12.40
2018-03-15T15:24:50.281Z,12.03
2018-03-15T15:27:16.938Z,11.10
2018-03-15T15:29:43.584Z,10.97
2018-03-15T15:32:10.244Z,13.10
2018-03-15T15:34:36.871Z,10.73
2018-03-15T15:37:03.513Z,10.47
2018-03-15T15:39:30.178Z,11.90
2018-03-15T15:41:56.852Z,10.50
2018-03-15T15:44:23.535Z,12.80
2018-03-15T15:46:50.164Z,11.37
2018-03-15T15:49:16.783Z,11.57
2018-03-15T15:51:43.418Z,11.60
2018-03-15T15:54:10.086Z,11.80
2018-03-15T15:56:36.718Z,12.17
2018-03-15T15:59:03.419Z,10.70
2018-03-15T16:01:30.220Z,13.30
2018-03-15T16:03:56.837Z,12.10
2018-03-15T16:06:23.472Z,11.90
2018-03-15T16:08:50.113Z,11.43
2018-03-15T16:11:16.831Z,12.30
2018-03-15T16:13:43.478Z,12.23
2018-03-15T16:16:10.187Z,15.23
2018-03-15T16:18:36.846Z,13.53
2018-03-15T16:21:03.504Z,13.40
2018-03-15T16:23:30.322Z,12.90
2018-03-15T16:25:57.036Z,12.37
2018-03-15T16:28:23.690Z,14.93
2018-03-15T16:30:50.434Z,11.10
2018-03-15T16:33:17.148Z,13.83
2018-03-15T16:35:44.055Z,13.07
2018-03-15T16:38:10.803Z,13.57
2018-03-15T16:40:37.487Z,17.67
2018-03-15T16:43:04.440Z,14.53
2018-03-15T16:45:31.918Z,13.50
2018-03-15T16:47:58.666Z,16.63
2018-03-15T16:50:25.563Z,20.67
2018-03-15T16:52:52.825Z,17.63
2018-03-15T16:55:19.571Z,17.70
2018-03-15T16:57:46.276Z,16.13
2018-03-15T17:00:13.015Z,18.23
2018-03-15T17:02:39.781Z,13.63
2018-03-15T17:05:06.505Z,14.97
2018-03-15T17:07:33.277Z,14.20
2018-03-15T17:10:00.072Z,13.60
2018-03-15T17:12:26.752Z,14.50
2018-03-15T17:14:53.533Z,13.57
2018-03-15T17:17:20.758Z,13.73
2018-03-15T17:19:47.462Z,15.30
2018-03-15T17:22:14.254Z,13.43
2018-03-15T17:24:41.266Z,15.70
2018-03-15T17:27:08.278Z,15.73
2018-03-15T17:29:34.933Z,16.43
2018-03-15T17:32:01.767Z,16.43
2018-03-15T17:34:28.650Z,13.30
2018-03-15T17:36:55.306Z,14.50
2018-03-15T17:39:22.143Z,15.20
2018-03-15T17:41:48.852Z,14.90
2018-03-15T17:44:15.572Z,17.77
2018-03-15T17:46:42.266Z,16.47
2018-03-15T17:49:09.358Z,14.57
2018-03-15T17:51:36.852Z,16.30
2018-03-15T17:54:03.826Z,13.47
2018-03-15T17:56:32.382Z,14.80
2018-03-15T17:58:59.170Z,14.97
2018-03-15T18:01:25.903Z,16.80
2018-03-15T18:03:52.557Z,14.50
2018-03-15T18:06:19.270Z,14.97
2018-03-15T18:08:46.101Z,14.47
2018-03-15T18:11:12.795Z,17.17
2018-03-15T18:13:40.019Z,17.50
2018-03-15T18:16:07.071Z,16.10
2018-03-15T18:18:33.754Z,14.47
2018-03-15T18:21:00.566Z,17.20
2018-03-15T18:23:27.301Z,21.13
2018-03-15T18:25:53.924Z,22.63
2018-03-15T18:28:21.210Z,26.90
2018-03-15T18:30:48.215Z,27.10
2018-03-15T18:33:15.303Z,25.30
2018-03-15T18:35:42.055Z,23.77
2018-03-15T18:38:08.857Z,24.20
2018-03-15T18:40:35.629Z,25.90
2018-03-15T18:43:02.590Z,25.97
2018-03-15T18:45:29.355Z,28.23
2018-03-15T18:47:56.615Z,25.50
2018-03-15T18:50:23.806Z,26.40
2018-03-15T18:52:50.736Z,27.60
2018-03-15T18:55:17.384Z,28.90
2018-03-15T18:57:44.255Z,24.13
2018-03-15T19:00:11.407Z,27.77
2018-03-15T19:02:38.206Z,28.23
2018-03-15T19:05:05.197Z,27.17
2018-03-15T19:07:32.159Z,30.00
2018-03-15T19:09:58.842Z,30.20
2018-03-15T19:12:25.982Z,26.23
2018-03-15T19:14:52.678Z,28.20
2018-03-15T19:17:19.510Z,31.20
2018-03-15T19:19:46.309Z,26.27
2018-03-15T19:22:13.010Z,28.37
2018-03-15T19:24:39.974Z,28.13
2018-03-15T19:27:06.808Z,25.30
2018-03-15T19:29:33.475Z,28.83
2018-03-15T19:32:00.423Z,29.77
2018-03-15T19:34:27.119Z,29.90
2018-03-15T19:36:53.978Z,26.90
2018-03-15T19:39:20.970Z,29.23
2018-03-15T19:41:47.645Z,27.73
2018-03-15T19:44:14.468Z,29.50
2018-03-15T19:46:41.320Z,30.20
2018-03-15T19:49:08.060Z,33.63
2018-03-15T19:51:34.921Z,31.53
2018-03-15T19:54:01.585Z,30.73
2018-03-15T19:56:28.441Z,28.33
2018-03-15T19:58:55.118Z,30.00
2018-03-15T20:01:21.780Z,32.60
2018-03-15T20:03:48.670Z,31.27
2018-03-15T20:06:15.449Z,30.80
2018-03-15T20:08:42.185Z,30.73
2018-03-15T20:11:08.906Z,29.40
2018-03-15T20:13:35.736Z,29.70
2018-03-15T20:16:02.654Z,27.93
2018-03-15T20:18:29.318Z,28.57
2018-03-15T20:20:56.002Z,27.70
2018-03-15T20:23:28.729Z,26.97
2018-03-15T20:25:55.591Z,25.60
2018-03-15T20:28:37.187Z,26.80
2018-03-15T20:31:03.859Z,26.23
2018-03-15T20:33:36.381Z,29.87
2018-03-15T20:36:03.187Z,25.37
2018-03-15T20:38:29.946Z,25.47
2018-03-15T20:41:02.738Z,29.50
2018-03-15T20:43:29.481Z,27.23
2018-03-15T20:46:02.095Z,31.13
2018-03-15T20:48:49.179Z,29.20
2018-03-15T20:51:17.555Z,25.47
2018-03-15T20:53:45.688Z,25.80
2018-03-15T20:56:12.504Z,23.97
2018-03-15T20:58:39.167Z,24.80
2018-03-15T21:01:06.176Z,25.87
2018-03-15T21:03:33.559Z,24.70
2018-03-15T21:06:00.389Z,23.77
2018-03-15T21:08:27.107Z,22.23
2018-03-15T21:10:53.750Z,26.87
2018-03-15T21:13:20.392Z,24.07
2018-03-15T21:15:47.028Z,23.77
2018-03-15T21:18:13.837Z,24.80
2018-03-15T21:20:40.498Z,24.03
2018-03-15T21:23:07.310Z,24.97
2018-03-15T21:25:34.218Z,30.00
2018-03-15T21:28:01.070Z,23.57
2018-03-15T21:30:27.792Z,21.20
2018-03-15T21:32:54.542Z,21.97
2018-03-15T21:35:21.298Z,22.50
2018-03-15T21:37:48.012Z,20.90
2018-03-15T21:40:14.998Z,20.40
2018-03-15T21:42:41.887Z,23.93
2018-03-15T21:45:08.820Z,20.20
2018-03-15T21:47:35.614Z,19.63
2018-03-15T21:50:02.391Z,21.50
2018-03-15T21:52:31.061Z,19.70
2018-03-15T21:54:57.833Z,22.30
2018-03-15T21:57:24.593Z,20.90
2018-03-15T21:59:51.808Z,21.50
2018-03-15T22:02:18.559Z,23.03
2018-03-15T22:04:45.246Z,22.60
2018-03-15T22:07:12.341Z,21.97
2018-03-15T22:09:39.225Z,21.50
2018-03-15T22:12:05.944Z,21.70
2018-03-15T22:14:32.582Z,21.00
2018-03-15T22:16:59.740Z,20.43
2018-03-15T22:19:26.653Z,18.83
2018-03-15T22:21:53.910Z,21.40
2018-03-15T22:24:20.601Z,20.63
2018-03-15T22:26:47.386Z,20.17
2018-03-15T22:29:14.121Z,18.30
2018-03-15T22:31:40.798Z,21.50
2018-03-15T22:34:07.732Z,18.80
2018-03-15T22:36:34.534Z,19.57
2018-03-15T22:39:01.218Z,20.23
2018-03-15T22:41:27.988Z,18.23
2018-03-15T22:43:54.769Z,18.83
2018-03-15T22:46:21.460Z,19.70
2018-03-15T22:48:48.127Z,19.90
2018-03-15T22:51:15.037Z,18.50
2018-03-15T22:53:42.599Z,19.83
2018-03-15T22:56:09.263Z,17.70
2018-03-15T22:58:35.902Z,20.37
2018-03-15T23:01:02.804Z,17.70
2018-03-15T23:03:30.148Z,19.33
2018-03-15T23:05:57.852Z,20.13
2018-03-15T23:08:24.506Z,19.40
2018-03-15T23:10:51.158Z,19.43
2018-03-15T23:13:18.192Z,21.33
2018-03-15T23:15:45.112Z,19.17
2018-03-15T23:18:11.874Z,21.37
2018-03-15T23:20:39.799Z,18.87
2018-03-15T23:23:06.457Z,16.70
2018-03-15T23:25:33.404Z,16.87
2018-03-15T23:28:00.277Z,17.00
2018-03-15T23:30:26.985Z,16.60
2018-03-15T23:32:53.736Z,16.57
2018-03-15T23:35:20.529Z,15.40
2018-03-15T23:37:47.197Z,13.63
2018-03-15T23:40:13.922Z,13.10
2018-03-15T23:42:40.864Z,12.23
2018-03-15T23:45:08.228Z,12.97
2018-03-15T23:47:34.865Z,10.83
2018-03-15T23:50:01.518Z,11.50
2018-03-15T23:52:28.843Z,11.57
2018-03-15T23:54:55.471Z,9.80
2018-03-15T23:57:22.168Z,9.20
2018-03-15T23:59:48.886Z,9.13
